createdAt,value
2018-11-03T00:00:42.429Z,303.1
2018-11-03T00:01:39.651Z,303.2
2018-11-03T00:02:39.741Z,302.5
2018-11-03T00:03:40.418Z,301.6
2018-11-03T00:04:39.755Z,301.9
2018-11-03T00:05:42.526Z,302.1
2018-11-03T00:06:40.544Z,303.1
2018-11-03T00:07:38.820Z,302.9
2018-11-03T00:08:40.016Z,302.8
2018-11-03T00:09:38.865Z,302.5
2018-11-03T00:10:39.449Z,301.1
2018-11-03T00:11:39.646Z,302.5
2018-11-03T00:12:39.430Z,303.6
2018-11-03T00:13:39.317Z,302.8
2018-11-03T00:14:39.403Z,304
2018-11-03T00:15:40.783Z,304.5
2018-11-03T00:16:39.891Z,303.6
2018-11-03T00:17:41.118Z,304.3
2018-11-03T00:18:40.006Z,303.9
2018-11-03T00:19:39.333Z,304.5
2018-11-03T00:20:39.538Z,304.8
2018-11-03T00:21:41.970Z,303.5
2018-11-03T00:22:39.407Z,304.3
2018-11-03T00:23:40.105Z,304.2
2018-11-03T00:24:39.993Z,304.3
2018-11-03T00:25:38.837Z,304.2
2018-11-03T00:26:40.999Z,303.1
2018-11-03T00:27:38.798Z,303.8
2018-11-03T00:28:40.096Z,304.5
2018-11-03T00:29:38.783Z,304.7
2018-11-03T00:30:39.268Z,304.9
2018-11-03T00:31:40.613Z,304.2
2018-11-03T00:32:39.831Z,303.6
2018-11-03T00:33:40.438Z,303.8
2018-11-03T00:34:39.393Z,304.4
2018-11-03T00:35:39.705Z,303.7
2018-11-03T00:36:38.848Z,304.1
2018-11-03T00:37:39.726Z,304.6
2018-11-03T00:38:39.897Z,304.5
2018-11-03T00:39:38.797Z,304.4
2018-11-03T00:40:39.870Z,304.7
2018-11-03T00:41:39.993Z,303.5
2018-11-03T00:42:38.878Z,302.6
2018-11-03T00:43:39.503Z,302.5
2018-11-03T00:44:39.432Z,300.4
2018-11-03T00:45:39.393Z,301.5
2018-11-03T00:46:39.836Z,296
2018-11-03T00:47:38.790Z,294.5
2018-11-03T00:48:39.728Z,288.8
2018-11-03T00:49:40.560Z,287.7
2018-11-03T00:50:39.969Z,291.7
2018-11-03T00:51:40.489Z,293.8
2018-11-03T00:52:39.342Z,295
2018-11-03T00:53:40.586Z,296.4
2018-11-03T00:54:39.820Z,290.8
2018-11-03T00:55:39.526Z,287
2018-11-03T00:56:39.834Z,282.8
2018-11-03T00:57:39.527Z,286.4
2018-11-03T00:58:40.259Z,288.5
2018-11-03T00:59:39.361Z,291.9
2018-11-03T01:00:40.812Z,299
2018-11-03T01:01:39.551Z,295.5
2018-11-03T01:02:39.343Z,299.2
2018-11-03T01:03:39.455Z,300.9
2018-11-03T01:04:39.369Z,291.7
2018-11-03T01:05:42.415Z,291.4
2018-11-03T01:06:39.781Z,276.1
2018-11-03T01:07:39.443Z,268.6
2018-11-03T01:08:39.397Z,269.5
2018-11-03T01:09:38.815Z,265.7
2018-11-03T01:10:40.444Z,262.6
2018-11-03T01:11:40.297Z,263.2
2018-11-03T01:12:39.304Z,261.5
2018-11-03T01:13:40.473Z,261.7
2018-11-03T01:14:38.724Z,264.2
2018-11-03T01:15:38.773Z,261.9
2018-11-03T01:16:39.739Z,260.9
2018-11-03T01:17:42.030Z,260.9
2018-11-03T01:18:40.628Z,261
2018-11-03T01:19:40.433Z,260.5
2018-11-03T01:20:38.908Z,260.2
2018-11-03T01:21:45.909Z,260.1
2018-11-03T01:22:41.631Z,261.1
2018-11-03T01:23:40.595Z,262.4
2018-11-03T01:24:40.170Z,261.6
2018-11-03T01:25:40.421Z,261.4
2018-11-03T01:26:40.275Z,260.7
2018-11-03T01:27:39.334Z,260.8
2018-11-03T01:28:39.541Z,260.4
2018-11-03T01:29:39.328Z,260.2
2018-11-03T01:30:39.709Z,248.6
2018-11-03T01:31:39.460Z,230.1
2018-11-03T01:32:42.174Z,222.6
2018-11-03T01:33:38.847Z,215.9
2018-11-03T01:34:39.738Z,190.8
2018-11-03T01:35:39.356Z,179.2
2018-11-03T01:36:39.264Z,174.2
2018-11-03T01:37:40.001Z,171.9
2018-11-03T01:38:39.522Z,170.9
2018-11-03T01:39:39.676Z,170.4
2018-11-03T01:40:38.862Z,193
2018-11-03T01:41:39.262Z,215
2018-11-03T01:42:39.935Z,233.2
2018-11-03T01:43:40.466Z,246.7
2018-11-03T01:44:40.069Z,240.3
2018-11-03T01:45:39.693Z,227.2
2018-11-03T01:46:39.702Z,221
2018-11-03T01:47:39.584Z,218
2018-11-03T01:48:38.768Z,216.7
2018-11-03T01:49:39.265Z,219.1
2018-11-03T01:50:39.753Z,246.2
2018-11-03T01:51:40.602Z,270.1
2018-11-03T01:52:39.342Z,282.8
2018-11-03T01:53:39.446Z,292.3
2018-11-03T01:54:40.662Z,288.7
2018-11-03T01:55:40.059Z,282
2018-11-03T01:56:40.746Z,274.8
2018-11-03T01:57:40.299Z,278
2018-11-03T01:58:40.041Z,274.6
2018-11-03T01:59:40.298Z,272.6
2018-11-03T02:00:39.929Z,274.8
2018-11-03T02:01:38.836Z,281.7
2018-11-03T02:02:40.367Z,294.4
2018-11-03T02:03:38.800Z,299.9
2018-11-03T02:04:39.452Z,302.6
2018-11-03T02:05:39.999Z,302.5
2018-11-03T02:06:39.555Z,296.6
2018-11-03T02:07:39.694Z,277.2
2018-11-03T02:08:39.752Z,267.7
2018-11-03T02:09:38.730Z,277.1
2018-11-03T02:10:40.323Z,291.8
2018-11-03T02:11:38.835Z,292.7
2018-11-03T02:12:39.783Z,274.8
2018-11-03T02:13:39.300Z,271.6
2018-11-03T02:14:38.681Z,266
2018-11-03T02:15:39.343Z,263.3
2018-11-03T02:16:41.786Z,262.9
2018-11-03T02:17:39.329Z,247.9
2018-11-03T02:18:39.809Z,234
2018-11-03T02:19:39.931Z,234.1
2018-11-03T02:20:39.447Z,249.1
2018-11-03T02:21:38.781Z,255.1
2018-11-03T02:22:40.420Z,257.8
2018-11-03T02:23:40.226Z,269.9
2018-11-03T02:24:40.364Z,266.5
2018-11-03T02:25:39.701Z,269.8
2018-11-03T02:26:41.991Z,257.4
2018-11-03T02:27:38.926Z,260.5
2018-11-03T02:28:39.674Z,268.3
2018-11-03T02:29:40.641Z,270.3
2018-11-03T02:30:38.726Z,243.3
2018-11-03T02:31:38.901Z,253.9
2018-11-03T02:32:39.466Z,257.4
2018-11-03T02:33:40.276Z,261.9
2018-11-03T02:34:39.347Z,278.7
2018-11-03T02:35:39.910Z,292.8
2018-11-03T02:36:40.474Z,299
2018-11-03T02:37:38.771Z,301.7
2018-11-03T02:38:39.557Z,300.7
2018-11-03T02:39:39.445Z,303.3
2018-11-03T02:40:38.737Z,302.9
2018-11-03T02:41:39.059Z,303
2018-11-03T02:42:39.789Z,303.2
2018-11-03T02:43:38.804Z,303
2018-11-03T02:44:39.409Z,304
2018-11-03T02:45:39.645Z,304.3
2018-11-03T02:46:40.400Z,304.3
2018-11-03T02:47:38.756Z,304.7
2018-11-03T02:48:38.757Z,304.8
2018-11-03T02:49:40.471Z,304.4
2018-11-03T02:50:40.428Z,303.2
2018-11-03T02:51:39.306Z,304.8
2018-11-03T02:52:40.194Z,303.3
2018-11-03T02:53:39.453Z,302.6
2018-11-03T02:54:39.871Z,302.6
2018-11-03T02:55:39.342Z,301.2
2018-11-03T02:56:40.262Z,300.7
2018-11-03T02:57:39.327Z,302.8
2018-11-03T02:58:43.147Z,303.1
2018-11-03T02:59:38.883Z,303.9
2018-11-03T03:00:39.689Z,303.7
2018-11-03T03:01:39.563Z,304.1
2018-11-03T03:02:40.009Z,304.1
2018-11-03T03:03:40.439Z,303.7
2018-11-03T03:04:40.317Z,304.4
2018-11-03T03:05:40.214Z,304.7
2018-11-03T03:06:39.250Z,304.9
2018-11-03T03:07:41.309Z,304.9
2018-11-03T03:08:39.343Z,304.3
2018-11-03T03:09:40.240Z,303.7
2018-11-03T03:10:42.392Z,304.4
2018-11-03T03:11:39.780Z,303.9
2018-11-03T03:12:39.490Z,304.2
2018-11-03T03:13:39.473Z,304.9
2018-11-03T03:14:40.283Z,301.7
2018-11-03T03:15:40.208Z,303.5
2018-11-03T03:16:40.290Z,303.9
2018-11-03T03:17:38.833Z,304.2
2018-11-03T03:18:39.369Z,304.6
2018-11-03T03:19:39.615Z,304.2
2018-11-03T03:20:39.369Z,304.6
2018-11-03T03:21:39.693Z,304.5
2018-11-03T03:22:39.812Z,304.5
2018-11-03T03:23:38.674Z,304.8
2018-11-03T03:24:39.319Z,304.9
2018-11-03T03:25:39.418Z,305
2018-11-03T03:26:39.371Z,304.7
2018-11-03T03:27:40.274Z,304.6
2018-11-03T03:28:38.818Z,300.9
2018-11-03T03:29:40.648Z,291.1
2018-11-03T03:30:39.205Z,295.5
2018-11-03T03:31:41.428Z,300.6
2018-11-03T03:32:39.358Z,303
2018-11-03T03:33:40.295Z,304
2018-11-03T03:34:40.353Z,304.6
2018-11-03T03:35:39.380Z,304.5
2018-11-03T03:36:39.492Z,304.8
2018-11-03T03:37:41.106Z,304.6
2018-11-03T03:38:40.358Z,304.5
2018-11-03T03:39:38.701Z,304.8
2018-11-03T03:40:39.378Z,304.9
2018-11-03T03:41:40.034Z,304.7
2018-11-03T03:42:39.231Z,304.9
2018-11-03T03:43:39.613Z,304.9
2018-11-03T03:44:39.331Z,305
2018-11-03T03:45:40.021Z,305
2018-11-03T03:46:39.384Z,304.7
2018-11-03T03:47:39.325Z,304.9
2018-11-03T03:48:38.691Z,304.9
2018-11-03T03:49:41.544Z,305
2018-11-03T03:50:39.859Z,305
2018-11-03T03:51:43.869Z,304.7
2018-11-03T03:52:40.205Z,304.9
2018-11-03T03:53:40.194Z,304.4
2018-11-03T03:54:40.771Z,304.4
2018-11-03T03:55:39.522Z,304.5
2018-11-03T03:56:38.671Z,304.5
2018-11-03T03:57:39.753Z,304.8
2018-11-03T03:58:39.880Z,304.9
2018-11-03T03:59:39.252Z,304.9
2018-11-03T04:00:39.227Z,305
2018-11-03T04:01:38.812Z,305
2018-11-03T04:02:39.335Z,305
2018-11-03T04:03:39.701Z,305
2018-11-03T04:04:40.617Z,305
2018-11-03T04:05:39.284Z,305
2018-11-03T04:06:40.098Z,305
2018-11-03T04:07:38.733Z,305
2018-11-03T04:08:40.758Z,305
2018-11-03T04:09:39.741Z,304.4
2018-11-03T04:10:42.293Z,304.5
2018-11-03T04:11:39.502Z,304.5
2018-11-03T04:12:39.905Z,304.5
2018-11-03T04:13:39.308Z,304.5
2018-11-03T04:14:38.705Z,304.8
2018-11-03T04:15:39.359Z,304.9
2018-11-03T04:16:40.554Z,304.9
2018-11-03T04:17:39.239Z,304
2018-11-03T04:18:39.308Z,304.2
2018-11-03T04:19:39.711Z,304.3
2018-11-03T04:20:38.656Z,304.4
2018-11-03T04:21:39.848Z,304.7
2018-11-03T04:22:39.654Z,304.3
2018-11-03T04:23:39.626Z,304.4
2018-11-03T04:24:40.338Z,304.7
2018-11-03T04:25:39.393Z,304.9
2018-11-03T04:26:40.275Z,304.9
2018-11-03T04:27:42.895Z,305
2018-11-03T04:28:39.665Z,304.4
2018-11-03T04:29:39.371Z,304.7
2018-11-03T04:30:38.737Z,304.9
2018-11-03T04:31:40.209Z,304.9
2018-11-03T04:33:41.461Z,305
2018-11-03T04:34:42.947Z,305
2018-11-03T04:35:42.903Z,304.7
2018-11-03T04:36:41.545Z,304.9
2018-11-03T04:37:42.707Z,304.9
2018-11-03T04:38:42.334Z,305
2018-11-03T04:39:40.939Z,305
2018-11-03T04:40:40.902Z,305
2018-11-03T04:41:42.315Z,305
2018-11-03T04:42:40.840Z,305
2018-11-03T04:43:41.658Z,305
2018-11-03T04:44:41.835Z,303.8
2018-11-03T04:45:41.944Z,304.2
2018-11-03T04:46:44.043Z,304.6
2018-11-03T04:47:43.054Z,304.5
2018-11-03T04:48:42.530Z,304.5
2018-11-03T04:49:41.704Z,304.5
2018-11-03T04:50:42.437Z,304.8
2018-11-03T04:51:43.990Z,304.6
2018-11-03T04:52:40.848Z,304.5
2018-11-03T04:53:42.213Z,304.8
2018-11-03T04:54:42.544Z,304.9
2018-11-03T04:55:42.536Z,305
2018-11-03T04:56:42.025Z,305
2018-11-03T04:57:40.851Z,304.4
2018-11-03T04:58:43.026Z,304.7
2018-11-03T04:59:42.517Z,304.6
2018-11-03T05:00:42.024Z,304.8
2018-11-03T05:01:42.949Z,304.9
2018-11-03T05:02:42.572Z,304.7
2018-11-03T05:03:42.071Z,304.6
2018-11-03T05:04:42.509Z,304.8
2018-11-03T05:05:41.579Z,304.9
2018-11-03T05:06:42.516Z,303.7
2018-11-03T05:07:41.439Z,302.8
2018-11-03T05:09:47.582Z,304.1
2018-11-03T05:10:49.517Z,303.6
2018-11-03T05:11:47.548Z,304.1
2018-11-03T05:12:47.946Z,305.5
2018-11-03T05:13:46.516Z,311.3
2018-11-03T05:14:47.513Z,317.5
2018-11-03T05:15:46.494Z,328.9
2018-11-03T05:16:47.795Z,336.2
2018-11-03T05:17:50.081Z,343.1
2018-11-03T05:18:47.223Z,334.7
2018-11-03T05:19:48.295Z,334.9
2018-11-03T05:20:47.733Z,328.2
2018-11-03T05:21:48.010Z,317.3
2018-11-03T05:22:47.840Z,310.6
2018-11-03T05:23:47.552Z,307.6
2018-11-03T05:24:48.505Z,305.9
2018-11-03T05:25:47.704Z,306.5
2018-11-03T05:26:47.682Z,307.9
2018-11-03T05:27:46.562Z,311.6
2018-11-03T05:28:47.467Z,321.4
2018-11-03T05:29:47.349Z,336.9
2018-11-03T05:30:46.985Z,332.1
2018-11-03T05:31:48.336Z,317.7
2018-11-03T05:32:46.562Z,310.8
2018-11-03T05:33:46.551Z,307.7
2018-11-03T05:34:47.672Z,306.3
2018-11-03T05:35:49.622Z,305.6
2018-11-03T05:36:47.895Z,305
2018-11-03T05:37:47.271Z,305
2018-11-03T05:38:47.766Z,305
2018-11-03T05:39:47.497Z,304.4
2018-11-03T05:40:48.127Z,305.6
2018-11-03T05:41:47.240Z,305.3
2018-11-03T05:42:47.252Z,304.9
2018-11-03T05:43:48.503Z,304.7
2018-11-03T05:44:47.166Z,304.9
2018-11-03T05:45:47.915Z,304.7
2018-11-03T05:46:47.827Z,304.9
2018-11-03T05:47:47.200Z,304.7
2018-11-03T05:48:50.256Z,304.8
2018-11-03T05:49:47.310Z,304.6
2018-11-03T05:50:46.480Z,304.8
2018-11-03T05:51:47.600Z,304.9
2018-11-03T05:52:47.635Z,304.7
2018-11-03T05:53:46.906Z,304.9
2018-11-03T05:54:47.094Z,304.9
2018-11-03T05:55:48.540Z,304.7
2018-11-03T05:56:47.621Z,304.6
2018-11-03T05:57:47.741Z,304.8
2018-11-03T05:58:47.574Z,304.9
2018-11-03T06:00:53.005Z,305
2018-11-03T06:01:53.941Z,305
2018-11-03T06:02:53.076Z,305
2018-11-03T06:03:54.114Z,305
2018-11-03T06:04:52.866Z,304.7
2018-11-03T06:05:53.947Z,304.9
2018-11-03T06:06:52.938Z,304.7
2018-11-03T06:07:52.993Z,304.8
2018-11-03T06:08:53.861Z,304.9
2018-11-03T06:09:53.081Z,304.4
2018-11-03T06:10:54.149Z,304.5
2018-11-03T06:11:57.265Z,304.7
2018-11-03T06:12:58.380Z,306.5
2018-11-03T06:13:56.127Z,305.7
2018-11-03T06:14:56.592Z,305
2018-11-03T06:15:55.309Z,304.5
2018-11-03T06:16:54.001Z,304.8
2018-11-03T06:17:58.154Z,304.9
2018-11-03T06:18:53.662Z,304.9
2018-11-03T06:19:58.749Z,304.7
2018-11-03T06:20:56.995Z,304.6
2018-11-03T06:21:54.844Z,304.8
2018-11-03T06:23:00.710Z,314.8
2018-11-03T06:23:56.630Z,321.6
2018-11-03T06:24:59.735Z,324.8
2018-11-03T06:25:57.911Z,316.9
2018-11-03T06:26:58.133Z,310.2
2018-11-03T06:27:57.328Z,307.4
2018-11-03T06:28:58.731Z,306.1
2018-11-03T06:29:58.054Z,305.5
2018-11-03T06:30:54.432Z,305
2018-11-03T06:31:56.378Z,305
2018-11-03T06:32:56.135Z,304.7
2018-11-03T06:33:55.960Z,304.9
2018-11-03T06:34:59.045Z,304.7
2018-11-03T06:35:54.342Z,304.6
2018-11-03T06:36:54.044Z,304.5
2018-11-03T06:37:57.040Z,304.8
2018-11-03T06:38:53.683Z,304.6
2018-11-03T06:39:54.561Z,304.8
2018-11-03T06:40:52.316Z,304.9
2018-11-03T06:41:54.609Z,305
2018-11-03T06:42:53.474Z,304.7
2018-11-03T06:43:53.048Z,304.9
2018-11-03T06:44:56.095Z,304.9
2018-11-03T06:45:52.897Z,305
2018-11-03T06:46:52.413Z,305
2018-11-03T06:47:52.959Z,305
2018-11-03T06:48:54.456Z,305
2018-11-03T06:49:53.162Z,304.7
2018-11-03T06:50:52.923Z,304.9
2018-11-03T06:51:55.603Z,304.9
2018-11-03T06:52:52.906Z,304.4
2018-11-03T06:53:53.069Z,304.5
2018-11-03T06:54:52.460Z,304.7
2018-11-03T06:55:52.349Z,304.9
2018-11-03T06:56:57.266Z,304.9
2018-11-03T06:57:53.129Z,304.7
2018-11-03T06:58:53.473Z,304.9
2018-11-03T06:59:57.233Z,304.7
2018-11-03T07:00:56.054Z,304.6
2018-11-03T07:01:56.369Z,304.8
2018-11-03T07:03:01.517Z,304.6
2018-11-03T07:03:56.023Z,304.5
2018-11-03T07:04:57.229Z,304.5
2018-11-03T07:06:01.595Z,304.8
2018-11-03T07:06:57.706Z,304.9
2018-11-03T07:07:58.909Z,305
2018-11-03T07:08:58.083Z,305
2018-11-03T07:09:54.133Z,304.4
2018-11-03T07:10:53.669Z,304.2
2018-11-03T07:11:53.332Z,304.6
2018-11-03T07:12:53.755Z,304.6
2018-11-03T07:13:53.077Z,304.5
2018-11-03T07:14:52.361Z,304.5
2018-11-03T07:15:53.043Z,304.8
2018-11-03T07:16:54.078Z,304.9
2018-11-03T07:17:52.441Z,304.9
2018-11-03T07:18:52.984Z,305
2018-11-03T07:19:52.876Z,305
2018-11-03T07:20:52.969Z,305
2018-11-03T07:21:52.627Z,305
2018-11-03T07:22:53.541Z,305
2018-11-03T07:23:53.617Z,305
2018-11-03T07:24:53.003Z,305
2018-11-03T07:25:52.348Z,305
2018-11-03T07:26:53.761Z,305
2018-11-03T07:27:53.135Z,304.7
2018-11-03T07:28:54.270Z,304.9
2018-11-03T07:29:54.372Z,304.9
2018-11-03T07:30:52.340Z,304.7
2018-11-03T07:31:53.328Z,304.9
2018-11-03T07:32:53.407Z,304.9
2018-11-03T07:33:52.452Z,305
2018-11-03T07:34:53.097Z,305
2018-11-03T07:35:52.339Z,305
2018-11-03T07:36:52.887Z,305
2018-11-03T07:37:53.149Z,305
2018-11-03T07:38:53.039Z,305
2018-11-03T07:39:53.742Z,305
2018-11-03T07:40:53.873Z,305
2018-11-03T07:41:52.409Z,317.1
2018-11-03T07:42:53.527Z,335.2
2018-11-03T07:43:53.600Z,339.1
2018-11-03T07:44:53.211Z,354.3
2018-11-03T07:45:52.735Z,351.9
2018-11-03T07:46:53.103Z,4.1
2018-11-03T07:47:54.020Z,15.8
2018-11-03T07:48:57.734Z,26.3
2018-11-03T07:49:55.081Z,33
2018-11-03T07:50:53.313Z,34.1
2018-11-03T07:51:53.609Z,34.6
2018-11-03T07:52:53.373Z,34.8
2018-11-03T07:53:56.024Z,34.9
2018-11-03T07:54:53.438Z,35
2018-11-03T07:55:53.666Z,35
2018-11-03T07:56:53.377Z,35
2018-11-03T07:57:53.288Z,35
2018-11-03T07:58:54.193Z,35
2018-11-03T07:59:58.251Z,35
2018-11-03T08:00:59.330Z,35
2018-11-03T08:01:56.540Z,37.9
2018-11-03T08:02:53.312Z,44.2
2018-11-03T08:03:55.305Z,63.8
2018-11-03T08:04:58.388Z,72.7
2018-11-03T08:05:56.031Z,76.7
2018-11-03T08:06:53.285Z,91.6
2018-11-03T08:07:53.121Z,110.1
2018-11-03T08:08:53.417Z,118.3
2018-11-03T08:09:52.453Z,116.3
2018-11-03T08:10:54.281Z,101.3
2018-11-03T08:11:53.225Z,107.8
2018-11-03T08:12:52.973Z,115
2018-11-03T08:13:52.950Z,95.9
2018-11-03T08:14:52.344Z,80.5
2018-11-03T08:15:57.576Z,90.5
2018-11-03T08:16:53.907Z,78.1
2018-11-03T08:17:52.360Z,78.9
2018-11-03T08:18:53.855Z,79.5
2018-11-03T08:19:54.544Z,79.3
2018-11-03T08:20:56.752Z,58.5
2018-11-03T08:21:53.498Z,45.5
2018-11-03T08:22:56.644Z,39.8
2018-11-03T08:23:53.403Z,43
2018-11-03T08:24:53.253Z,89.3
2018-11-03T08:25:53.561Z,108.1
2018-11-03T08:26:53.043Z,118
2018-11-03T08:27:57.750Z,123.3
2018-11-03T08:28:53.500Z,124.2
2018-11-03T08:29:54.113Z,122.6
2018-11-03T08:30:53.756Z,106.4
2018-11-03T08:31:53.024Z,114.5
2018-11-03T08:32:53.472Z,107.2
2018-11-03T08:33:53.102Z,108.9
2018-11-03T08:34:53.495Z,117.8
2018-11-03T08:35:53.266Z,121.7
2018-11-03T08:36:52.973Z,114.6
2018-11-03T08:37:53.029Z,71.8
2018-11-03T08:38:52.991Z,69
2018-11-03T08:39:53.068Z,68.2
2018-11-03T08:40:53.313Z,22.4
2018-11-03T08:41:52.397Z,2.5
2018-11-03T08:42:54.175Z,355.3
2018-11-03T08:43:53.137Z,19
2018-11-03T08:44:53.666Z,56.1
2018-11-03T08:45:52.943Z,85.3
2018-11-03T08:46:52.408Z,99.2
2018-11-03T08:47:52.992Z,104.7
2018-11-03T08:48:53.079Z,93.8
2018-11-03T08:49:52.397Z,86.1
2018-11-03T08:50:52.300Z,105.1
2018-11-03T08:51:53.919Z,111.2
2018-11-03T08:52:52.944Z,122.2
2018-11-03T08:53:52.835Z,119.9
2018-11-03T08:54:52.957Z,117.7
2018-11-03T08:55:52.307Z,120.5
2018-11-03T08:56:53.456Z,121.6
2018-11-03T08:57:53.015Z,123.4
2018-11-03T08:58:52.276Z,124.3
2018-11-03T08:59:53.764Z,124.7
2018-11-03T09:00:52.312Z,124.8
2018-11-03T09:01:52.395Z,127.5
2018-11-03T09:02:52.473Z,122.9
2018-11-03T09:03:53.451Z,98.5
2018-11-03T09:04:52.285Z,88.1
2018-11-03T09:05:52.292Z,83.7
2018-11-03T09:06:53.159Z,85.5
2018-11-03T09:07:53.217Z,82.6
2018-11-03T09:08:53.360Z,87.2
2018-11-03T09:09:52.281Z,99.5
2018-11-03T09:10:53.027Z,101.8
2018-11-03T09:11:52.967Z,114.6
2018-11-03T09:12:53.028Z,120.3
2018-11-03T09:13:52.336Z,119.6
2018-11-03T09:14:52.464Z,102.3
2018-11-03T09:15:53.602Z,108.2
2018-11-03T09:16:53.268Z,117.5
2018-11-03T09:17:52.913Z,112.2
2018-11-03T09:18:52.359Z,107.7
2018-11-03T09:19:52.854Z,117.5
2018-11-03T09:20:52.305Z,121.5
2018-11-03T09:21:54.539Z,123.4
2018-11-03T09:22:53.374Z,124.2
2018-11-03T09:23:52.332Z,124.6
2018-11-03T09:24:53.041Z,121.7
2018-11-03T09:25:53.369Z,114.1
2018-11-03T09:26:56.117Z,101.8
2018-11-03T09:27:54.431Z,105.2
2018-11-03T09:28:52.380Z,116.2
2018-11-03T09:29:52.831Z,109.2
2018-11-03T09:30:52.345Z,118
2018-11-03T09:31:53.094Z,118.1
2018-11-03T09:32:52.886Z,123.3
2018-11-03T09:33:54.462Z,124.2
2018-11-03T09:34:56.172Z,100.8
2018-11-03T09:35:52.921Z,87.6
2018-11-03T09:36:52.961Z,82.7
2018-11-03T09:37:52.282Z,90.8
2018-11-03T09:38:52.380Z,109.5
2018-11-03T09:39:53.909Z,118
2018-11-03T09:40:52.978Z,116.3
2018-11-03T09:41:53.330Z,111.1
2018-11-03T09:42:53.103Z,116.9
2018-11-03T09:43:53.674Z,121.2
2018-11-03T09:44:53.112Z,116.7
2018-11-03T09:45:52.821Z,109.1
2018-11-03T09:46:52.885Z,103.2
2018-11-03T09:47:53.022Z,110.2
2018-11-03T09:48:52.281Z,111.4
2018-11-03T09:49:52.287Z,122.8
2018-11-03T09:50:52.506Z,124
2018-11-03T09:51:52.328Z,124.6
2018-11-03T09:52:52.321Z,125.9
2018-11-03T09:53:52.414Z,125.4
2018-11-03T09:54:52.314Z,125.2
2018-11-03T09:55:52.307Z,120.7
2018-11-03T09:56:52.321Z,123
2018-11-03T09:57:52.403Z,124.1
2018-11-03T09:58:57.495Z,124.6
2018-11-03T09:59:52.341Z,124.8
2018-11-03T10:00:52.293Z,124.9
2018-11-03T10:01:52.360Z,113.5
2018-11-03T10:02:52.293Z,107.9
2018-11-03T10:03:52.484Z,105.5
2018-11-03T10:04:52.342Z,103.9
2018-11-03T10:05:52.272Z,101.5
2018-11-03T10:06:52.265Z,113.6
2018-11-03T10:07:52.251Z,109.4
2018-11-03T10:08:52.339Z,118
2018-11-03T10:09:52.318Z,121.8
2018-11-03T10:10:52.322Z,126.3
2018-11-03T10:11:52.303Z,130.8
2018-11-03T10:12:52.297Z,127.7
2018-11-03T10:13:52.534Z,120.4
2018-11-03T10:14:52.253Z,113.3
2018-11-03T10:15:56.151Z,113.8
2018-11-03T10:16:52.400Z,109
2018-11-03T10:17:52.282Z,97.9
2018-11-03T10:18:52.362Z,100
2018-11-03T10:19:52.279Z,116.7
2018-11-03T10:20:52.356Z,121.3
2018-11-03T10:21:52.244Z,119.1
2018-11-03T10:22:52.480Z,112.9
2018-11-03T10:23:52.449Z,114.7
2018-11-03T10:24:52.339Z,117
2018-11-03T10:25:52.354Z,106.6
2018-11-03T10:26:52.744Z,92.2
2018-11-03T10:27:52.339Z,101.6
2018-11-03T10:28:52.246Z,114.5
2018-11-03T10:29:52.283Z,120.2
2018-11-03T10:30:52.322Z,122.8
2018-11-03T10:31:52.330Z,129.3
2018-11-03T10:32:52.321Z,106.3
2018-11-03T10:33:52.539Z,66.3
2018-11-03T10:34:52.245Z,33.5
2018-11-03T10:35:52.288Z,7.1
2018-11-03T10:36:52.376Z,3.7
2018-11-03T10:37:52.923Z,72.3
2018-11-03T10:38:52.309Z,79.4
2018-11-03T10:39:52.344Z,82.3
2018-11-03T10:40:52.320Z,83.5
2018-11-03T10:41:52.292Z,86.7
2018-11-03T10:42:52.265Z,87.3
2018-11-03T10:43:52.317Z,83.4
2018-11-03T10:44:52.310Z,81.6
2018-11-03T10:45:52.276Z,67.8
2018-11-03T10:46:52.243Z,57.8
2018-11-03T10:47:52.261Z,74.3
2018-11-03T10:48:52.682Z,96.2
2018-11-03T10:49:52.363Z,101.9
2018-11-03T10:50:52.330Z,104
2018-11-03T10:51:52.263Z,88.4
2018-11-03T10:52:52.364Z,89.2
2018-11-03T10:53:52.379Z,92.1
2018-11-03T10:54:52.330Z,92.8
2018-11-03T10:55:52.378Z,89.3
2018-11-03T10:56:52.325Z,104.3
2018-11-03T10:57:52.334Z,98.3
2018-11-03T10:58:52.307Z,88.2
2018-11-03T10:59:52.303Z,104.5
2018-11-03T11:00:52.299Z,114.6
2018-11-03T11:01:52.275Z,115.1
2018-11-03T11:02:52.334Z,101.6
2018-11-03T11:03:52.333Z,93.6
2018-11-03T11:04:55.105Z,93.9
2018-11-03T11:05:52.225Z,89
2018-11-03T11:06:52.273Z,91.7
2018-11-03T11:07:52.313Z,84.4
2018-11-03T11:08:52.282Z,53.4
2018-11-03T11:09:52.329Z,29.1
2018-11-03T11:10:52.253Z,19.6
2018-11-03T11:11:53.286Z,15.7
2018-11-03T11:12:55.836Z,13.9
2018-11-03T11:13:56.653Z,24.4
2018-11-03T11:14:56.289Z,30.1
2018-11-03T11:15:59.454Z,32.7
2018-11-03T11:16:58.138Z,36.7
2018-11-03T11:17:57.081Z,78.6
2018-11-03T11:18:57.090Z,111.6
2018-11-03T11:19:57.831Z,120.4
2018-11-03T11:20:56.969Z,108.4
2018-11-03T11:21:58.102Z,113.5
2018-11-03T11:22:57.342Z,78.3
2018-11-03T11:23:56.789Z,37.3
2018-11-03T11:24:57.985Z,49
2018-11-03T11:25:57.119Z,81.8
2018-11-03T11:26:59.430Z,92.8
2018-11-03T11:27:56.978Z,109.9
2018-11-03T11:28:57.167Z,115.4
2018-11-03T11:29:56.999Z,108.9
2018-11-03T11:30:57.685Z,114.4
2018-11-03T11:31:56.777Z,120.2
2018-11-03T11:32:57.890Z,122.2
2018-11-03T11:33:52.260Z,115.2
2018-11-03T11:34:52.426Z,110.1
2018-11-03T11:35:52.271Z,104.5
2018-11-03T11:36:52.296Z,107
2018-11-03T11:37:52.301Z,92.7
2018-11-03T11:38:52.255Z,103.6
2018-11-03T11:39:52.330Z,96
2018-11-03T11:40:52.327Z,110
2018-11-03T11:41:52.240Z,98.7
2018-11-03T11:42:52.423Z,63.8
2018-11-03T11:43:52.270Z,94.2
2018-11-03T11:44:52.389Z,95.5
2018-11-03T11:45:52.323Z,84
2018-11-03T11:46:52.285Z,66.7
2018-11-03T11:47:52.237Z,59.7
2018-11-03T11:48:52.298Z,60
2018-11-03T11:49:52.311Z,65.4
2018-11-03T11:50:52.316Z,65.8
2018-11-03T11:51:52.335Z,70.4
2018-11-03T11:52:52.330Z,89.6
2018-11-03T11:53:55.591Z,98.2
2018-11-03T11:54:52.426Z,97
2018-11-03T11:55:52.332Z,93.4
2018-11-03T11:56:52.367Z,98.6
2018-11-03T11:57:52.272Z,88.5
2018-11-03T11:58:52.229Z,69.8
2018-11-03T11:59:52.305Z,56.4
2018-11-03T12:00:52.423Z,59
2018-11-03T12:01:52.334Z,71
2018-11-03T12:02:52.250Z,87
2018-11-03T12:03:52.326Z,94.7
2018-11-03T12:04:52.347Z,91.4
2018-11-03T12:05:52.267Z,98.8
2018-11-03T12:06:52.263Z,95.7
2018-11-03T12:07:52.389Z,99.6
2018-11-03T12:08:52.364Z,74.4
2018-11-03T12:09:52.470Z,71.7
2018-11-03T12:10:52.275Z,89.8
2018-11-03T12:11:52.336Z,57.6
2018-11-03T12:12:52.309Z,65.9
2018-11-03T12:13:52.333Z,86.8
2018-11-03T12:14:52.414Z,85.7
2018-11-03T12:15:53.214Z,84.9
2018-11-03T12:16:52.425Z,93.8
2018-11-03T12:17:52.320Z,80.2
2018-11-03T12:18:52.281Z,72.7
2018-11-03T12:19:52.294Z,64.8
2018-11-03T12:20:52.307Z,70.6
2018-11-03T12:21:52.341Z,72.7
2018-11-03T12:22:52.306Z,76.3
2018-11-03T12:23:52.360Z,92.5
2018-11-03T12:24:52.357Z,105.3
2018-11-03T12:25:52.426Z,115.9
2018-11-03T12:26:57.159Z,116.1
2018-11-03T12:27:52.321Z,95.6
2018-11-03T12:28:52.338Z,95.7
2018-11-03T12:29:52.400Z,104.5
2018-11-03T12:30:53.010Z,99.9
2018-11-03T12:31:52.367Z,109.3
2018-11-03T12:32:52.312Z,110.1
2018-11-03T12:33:52.429Z,110.3
2018-11-03T12:34:53.384Z,107.7
2018-11-03T12:35:52.378Z,116
2018-11-03T12:36:52.398Z,111.8
2018-11-03T12:37:52.330Z,94.1
2018-11-03T12:38:52.383Z,91.2
2018-11-03T12:39:52.291Z,85
2018-11-03T12:40:52.535Z,81.3
2018-11-03T12:41:52.320Z,80.9
2018-11-03T12:42:52.321Z,91.5
2018-11-03T12:43:52.378Z,62.7
2018-11-03T12:44:52.326Z,63.6
2018-11-03T12:45:52.381Z,86.1
2018-11-03T12:46:52.383Z,99.6
2018-11-03T12:47:52.292Z,82.3
2018-11-03T12:48:52.525Z,74.7
2018-11-03T12:49:52.293Z,77.6
2018-11-03T12:50:52.343Z,76.8
2018-11-03T12:51:52.382Z,54
2018-11-03T12:52:52.385Z,65.3
2018-11-03T12:53:55.284Z,61.4
2018-11-03T12:54:52.423Z,52.6
2018-11-03T12:55:52.303Z,53.5
2018-11-03T12:56:52.356Z,35
2018-11-03T12:57:53.091Z,25.6
2018-11-03T12:58:52.393Z,100
2018-11-03T12:59:52.362Z,106.6
2018-11-03T13:00:53.629Z,67.3
2018-11-03T13:01:52.328Z,46.8
2018-11-03T13:02:52.478Z,86.8
2018-11-03T13:03:52.384Z,84.4
2018-11-03T13:04:52.506Z,88.8
2018-11-03T13:05:52.393Z,81.7
2018-11-03T13:06:52.605Z,85.7
2018-11-03T13:07:52.458Z,93.1
2018-11-03T13:08:52.365Z,87.6
2018-11-03T13:09:52.752Z,79